Time;durP1;ratioP1;P1;durP2;ratioP2;P2;SDS_P1;SDS_P2;PMS_P1;PMS_P2;Temp;Humidity;BMP_temperature;BMP_pressure;BME280_temperature;BME280_humidity;BME280_pressure;Samples;Min_cycle;Max_cycle;Signal;HPM_P1;HPM_P2
2022/02/16 00:01:29;;;;;;;0.75;0.75;;;7.70;99.90;;;;;;5070668;28;20207;-49
2022/02/16 00:03:57;;;;;;;0.90;0.80;;;7.80;99.90;;;;;;5068313;27;20220;-54
2022/02/16 00:06:27;;;;;;;0.60;0.60;;;7.80;99.90;;;;;;5070822;28;20188;-52
2022/02/16 00:08:55;;;;;;;0.75;0.60;;;7.80;99.90;;;;;;5071109;27;20240;-55
2022/02/16 00:11:23;;;;;;;1.17;0.70;;;7.80;99.90;;;;;;5071331;28;20239;-54
2022/02/16 00:13:53;;;;;;;0.95;0.80;;;7.80;99.90;;;;;;5069349;27;20219;-52
2022/02/16 00:16:21;;;;;;;0.70;0.57;;;7.80;99.90;;;;;;5070433;28;20245;-55
2022/02/16 00:18:49;;;;;;;1.55;0.60;;;7.80;99.90;;;;;;5066286;27;20220;-53
2022/02/16 00:21:19;;;;;;;0.80;0.63;;;7.80;99.90;;;;;;5051698;28;20218;-53
2022/02/16 00:23:48;;;;;;;0.68;0.68;;;7.80;99.90;;;;;;5070929;27;20224;-52
2022/02/16 00:26:16;;;;;;;0.60;0.60;;;7.80;99.90;;;;;;5070631;28;20185;-52
2022/02/16 00:28:44;;;;;;;0.60;0.60;;;7.80;99.90;;;;;;5066674;28;20763;-51
2022/02/16 00:31:16;;;;;;;1.52;0.85;;;7.80;99.90;;;;;;5070516;28;20622;-53
2022/02/16 00:33:46;;;;;;;0.80;0.60;;;7.80;99.90;;;;;;5065513;28;20255;-50
2022/02/16 00:36:14;;;;;;;0.80;0.70;;;7.80;99.90;;;;;;5054621;28;20208;-51
2022/02/16 00:38:45;;;;;;;0.90;0.90;;;7.70;99.90;;;;;;5069988;28;20217;-51
2022/02/16 00:41:14;;;;;;;0.93;0.60;;;7.80;99.90;;;;;;5069293;28;20211;-55
2022/02/16 00:43:43;;;;;;;0.80;0.65;;;7.80;99.90;;;;;;5063908;28;20246;-52
2022/02/16 00:46:11;;;;;;;0.93;0.80;;;7.80;99.90;;;;;;5049231;28;20197;-52
2022/02/16 00:48:40;;;;;;;0.70;0.63;;;7.80;99.90;;;;;;5058931;27;20216;-53
2022/02/16 00:51:08;;;;;;;1.60;0.60;;;7.80;99.90;;;;;;5049664;28;20221;-53
2022/02/16 00:53:36;;;;;;;1.15;0.70;;;7.80;99.90;;;;;;5069554;27;20290;-50
2022/02/16 00:56:05;;;;;;;0.88;0.77;;;7.80;99.90;;;;;;5068331;28;20197;-51
2022/02/16 00:58:35;;;;;;;1.23;0.57;;;7.80;99.90;;;;;;5066277;28;20391;-52
2022/02/16 01:01:03;;;;;;;0.90;0.55;;;7.80;99.90;;;;;;5067533;28;20270;-54
2022/02/16 01:03:31;;;;;;;0.93;0.90;;;7.80;99.90;;;;;;5068298;27;20228;-52
2022/02/16 01:06:01;;;;;;;0.70;0.70;;;7.80;99.90;;;;;;5054127;28;20176;-53
2022/02/16 01:08:31;;;;;;;0.90;0.50;;;7.80;99.90;;;;;;5065364;28;20229;-51
2022/02/16 01:11:01;;;;;;;0.70;0.60;;;7.80;99.90;;;;;;5067994;28;20704;-54
2022/02/16 01:13:32;;;;;;;0.90;0.70;;;7.80;99.90;;;;;;5063011;28;20341;-49
2022/02/16 01:16:02;;;;;;;1.13;1.02;;;7.80;99.90;;;;;;5067917;28;20219;-53
2022/02/16 01:18:30;;;;;;;1.80;0.70;;;7.70;99.90;;;;;;5066657;28;20312;-51
2022/02/16 01:21:00;;;;;;;0.70;0.60;;;7.80;99.90;;;;;;5070572;28;20204;-51
2022/02/16 01:23:28;;;;;;;1.30;0.90;;;7.80;99.90;;;;;;5062349;27;20249;-51
2022/02/16 01:26:00;;;;;;;0.80;0.77;;;7.80;99.90;;;;;;5068106;28;21452;-54
2022/02/16 01:28:51;;;;;;;0.70;0.60;;;7.80;99.90;;;;;;5051104;28;20303;-53
2022/02/16 01:31:21;;;;;;;0.90;0.60;;;7.80;99.90;;;;;;5056742;28;20213;-53
2022/02/16 01:33:52;;;;;;;1.35;0.77;;;7.80;99.90;;;;;;5064135;28;20219;-53
2022/02/16 01:36:22;;;;;;;0.80;0.65;;;7.80;99.90;;;;;;5068630;28;20221;-52
2022/02/16 01:38:54;;;;;;;0.80;0.80;;;7.80;99.90;;;;;;5100756;27;20223;-52
2022/02/16 01:41:25;;;;;;;0.68;0.60;;;7.80;99.90;;;;;;5067260;28;20715;-52
2022/02/16 01:44:00;;;;;;;0.73;0.73;;;7.80;99.90;;;;;;5055885;28;20223;-53
2022/02/16 01:46:30;;;;;;;0.70;0.70;;;7.80;99.90;;;;;;5053315;28;20270;-51
2022/02/16 01:49:04;;;;;;;0.77;0.50;;;7.80;99.90;;;;;;5066338;28;20214;-51
2022/02/16 01:51:36;;;;;;;0.60;0.57;;;7.80;99.90;;;;;;5064697;28;20220;-52
2022/02/16 01:54:06;;;;;;;1.00;0.73;;;7.80;99.90;;;;;;5059095;28;20271;-51
2022/02/16 01:56:36;;;;;;;0.85;0.73;;;7.80;99.90;;;;;;5067751;28;20204;-53
2022/02/16 01:59:04;;;;;;;1.05;0.80;;;7.80;99.90;;;;;;5065350;28;20673;-53
2022/02/16 02:01:53;;;;;;;0.80;0.50;;;7.80;99.90;;;;;;5068493;28;20615;-53
2022/02/16 02:04:22;;;;;;;0.40;0.40;;;7.80;99.90;;;;;;5064608;28;20723;-53
2022/02/16 02:06:53;;;;;;;0.50;0.50;;;7.80;99.90;;;;;;5068137;28;20192;-54
2022/02/16 02:09:22;;;;;;;0.77;0.65;;;7.80;99.90;;;;;;5067165;28;20824;-54
2022/02/16 02:11:50;;;;;;;0.70;0.55;;;7.80;99.90;;;;;;5069586;28;20197;-54
2022/02/16 02:14:18;;;;;;;0.88;0.57;;;7.80;99.90;;;;;;5065287;28;20231;-55
2022/02/16 02:17:03;;;;;;;1.00;0.60;;;7.80;99.90;;;;;;5067826;28;20313;-55
2022/02/16 02:19:34;;;;;;;0.60;0.60;;;7.80;99.90;;;;;;5064611;28;20220;-53
2022/02/16 02:22:04;;;;;;;0.80;0.80;;;7.80;99.90;;;;;;5069229;28;20553;-55
2022/02/16 02:24:32;;;;;;;1.00;0.50;;;7.80;99.90;;;;;;5066298;28;20740;-50
2022/02/16 02:27:00;;;;;;;0.82;0.50;;;7.80;99.90;;;;;;5067919;28;20199;-52
2022/02/16 02:29:31;;;;;;;0.60;0.50;;;7.80;99.90;;;;;;5064590;28;20705;-52
2022/02/16 02:32:03;;;;;;;1.00;0.60;;;7.80;99.90;;;;;;5068150;28;20224;-52
2022/02/16 02:34:31;;;;;;;0.70;0.68;;;7.80;99.90;;;;;;5064478;28;20220;-52
2022/02/16 02:36:59;;;;;;;0.60;0.50;;;7.80;99.90;;;;;;5068686;28;20324;-54
2022/02/16 02:39:29;;;;;;;0.90;0.50;;;7.80;99.90;;;;;;5066387;28;20227;-50
2022/02/16 02:41:57;;;;;;;0.70;0.45;;;7.80;99.90;;;;;;5068282;28;20220;-52
2022/02/16 02:44:25;;;;;;;0.57;0.57;;;7.80;99.90;;;;;;5065525;28;20226;-53
2022/02/16 02:46:54;;;;;;;1.05;0.60;;;7.80;99.90;;;;;;5067580;28;20247;-51
2022/02/16 02:49:25;;;;;;;0.60;0.50;;;7.80;99.90;;;;;;5065848;28;20680;-53
2022/02/16 02:51:56;;;;;;;0.80;0.52;;;7.80;99.90;;;;;;5067727;28;20180;-52
2022/02/16 02:54:25;;;;;;;0.52;0.52;;;7.80;99.90;;;;;;5065904;28;20217;-52
2022/02/16 02:56:55;;;;;;;0.70;0.50;;;7.80;99.90;;;;;;5068448;28;20287;-53
2022/02/16 02:59:24;;;;;;;0.65;0.65;;;7.80;99.90;;;;;;5056846;28;20230;-52
2022/02/16 03:01:55;;;;;;;0.63;0.63;;;7.80;99.90;;;;;;5067480;28;20193;-53
2022/02/16 03:04:23;;;;;;;0.60;0.60;;;7.80;99.90;;;;;;5057750;27;20221;-56
2022/02/16 03:06:51;;;;;;;0.60;0.60;;;7.80;99.90;;;;;;5060130;28;20212;-55
2022/02/16 03:09:19;;;;;;;0.70;0.63;;;7.70;99.90;;;;;;5066399;28;20616;-52
2022/02/16 03:11:48;;;;;;;0.50;0.40;;;7.80;99.90;;;;;;5069111;28;20185;-52
2022/02/16 03:14:19;;;;;;;0.57;0.57;;;7.80;99.90;;;;;;5064688;28;20222;-52
2022/02/16 03:16:47;;;;;;;0.80;0.80;;;7.80;99.90;;;;;;5067429;28;20200;-54
2022/02/16 03:19:16;;;;;;;0.93;0.60;;;7.80;99.90;;;;;;5066268;27;20226;-52
2022/02/16 03:21:44;;;;;;;1.35;0.70;;;7.80;99.90;;;;;;5067310;28;20192;-54
2022/02/16 03:24:12;;;;;;;0.98;0.82;;;7.80;99.90;;;;;;5066419;28;20253;-52
2022/02/16 03:26:41;;;;;;;0.57;0.50;;;7.80;99.90;;;;;;5066689;28;20194;-52
2022/02/16 03:29:12;;;;;;;0.75;0.60;;;7.80;99.90;;;;;;5057411;28;20701;-53
2022/02/16 03:31:51;;;;;;;0.68;0.50;;;7.80;99.90;;;;;;5057699;28;20279;-51
2022/02/16 03:34:20;;;;;;;0.90;0.70;;;7.80;99.90;;;;;;5092931;28;20224;-55
2022/02/16 03:36:49;;;;;;;0.90;0.55;;;7.80;99.90;;;;;;5067136;28;20791;-54
2022/02/16 03:39:18;;;;;;;0.65;0.57;;;7.80;99.90;;;;;;5069395;28;20721;-54
2022/02/16 03:41:48;;;;;;;0.70;0.60;;;7.80;99.90;;;;;;5071060;28;20546;-55
2022/02/16 03:44:17;;;;;;;1.00;0.55;;;7.80;99.90;;;;;;5058444;28;20246;-54
2022/02/16 03:46:55;;;;;;;0.77;0.55;;;7.80;99.90;;;;;;5085568;28;20199;-52
2022/02/16 03:49:26;;;;;;;0.70;0.60;;;7.80;99.90;;;;;;5067864;28;20474;-54
2022/02/16 03:51:58;;;;;;;0.73;0.65;;;7.80;99.90;;;;;;5070637;28;20583;-53
2022/02/16 03:54:27;;;;;;;0.82;0.60;;;7.80;99.90;;;;;;5068359;28;20223;-51
2022/02/16 03:56:58;;;;;;;0.50;0.30;;;7.80;99.90;;;;;;5066929;28;20213;-55
2022/02/16 03:59:26;;;;;;;0.60;0.40;;;7.80;99.90;;;;;;5052051;28;20425;-54
2022/02/16 04:02:15;;;;;;;0.55;0.40;;;7.80;99.90;;;;;;5069733;28;20204;-55
2022/02/16 04:04:44;;;;;;;0.70;0.60;;;7.80;99.90;;;;;;5097013;28;20265;-53
2022/02/16 04:07:12;;;;;;;0.70;0.50;;;7.80;99.90;;;;;;5070129;28;20730;-52
2022/02/16 04:09:41;;;;;;;1.85;0.52;;;7.80;99.90;;;;;;5068843;28;20701;-54
2022/02/16 04:12:13;;;;;;;0.70;0.60;;;7.80;99.90;;;;;;5070894;28;20288;-55
2022/02/16 04:14:41;;;;;;;0.50;0.45;;;7.80;99.90;;;;;;5067470;28;20219;-54
2022/02/16 04:17:11;;;;;;;0.65;0.50;;;7.80;99.90;;;;;;5070304;28;20216;-53
2022/02/16 04:19:41;;;;;;;0.80;0.60;;;7.80;99.90;;;;;;5064788;28;20615;-52
2022/02/16 04:22:14;;;;;;;0.70;0.60;;;7.80;99.90;;;;;;5069570;28;20260;-55
2022/02/16 04:24:43;;;;;;;0.80;0.63;;;7.80;99.90;;;;;;5068250;28;20316;-54
2022/02/16 04:27:11;;;;;;;0.50;0.40;;;7.80;99.90;;;;;;5069572;28;20184;-54
2022/02/16 04:29:39;;;;;;;0.70;0.55;;;7.70;99.90;;;;;;5067747;28;20236;-54
2022/02/16 04:32:08;;;;;;;1.00;0.60;;;7.80;99.90;;;;;;5069901;28;20219;-53
2022/02/16 04:34:41;;;;;;;0.70;0.45;;;7.80;99.90;;;;;;5067784;28;20634;-52
2022/02/16 04:37:09;;;;;;;0.77;0.60;;;7.80;99.90;;;;;;5070718;28;20875;-50
2022/02/16 04:39:37;;;;;;;0.63;0.50;;;7.80;99.90;;;;;;5068215;28;20231;-52
2022/02/16 04:42:05;;;;;;;0.50;0.40;;;7.80;99.90;;;;;;5069732;28;20658;-53
2022/02/16 04:44:34;;;;;;;0.70;0.68;;;7.80;99.90;;;;;;5057188;28;20235;-52
2022/02/16 04:47:09;;;;;;;0.50;0.40;;;7.80;99.90;;;;;;5069536;28;20700;-53
2022/02/16 04:49:38;;;;;;;0.50;0.40;;;7.80;99.90;;;;;;5065321;28;20305;-54
2022/02/16 04:52:08;;;;;;;0.70;0.55;;;7.80;99.90;;;;;;5071033;28;20196;-52
2022/02/16 04:54:37;;;;;;;0.60;0.50;;;7.80;99.90;;;;;;5069310;28;20667;-51
2022/02/16 04:57:10;;;;;;;0.60;0.50;;;7.80;99.90;;;;;;5070976;28;20239;-55
2022/02/16 04:59:46;;;;;;;0.63;0.43;;;7.70;99.90;;;;;;5066150;28;20227;-53
2022/02/16 05:02:15;;;;;;;1.02;0.47;;;7.80;99.90;;;;;;5069280;28;20226;-52
2022/02/16 05:04:43;;;;;;;0.50;0.40;;;7.80;99.90;;;;;;5065492;28;20220;-53
2022/02/16 05:07:12;;;;;;;0.50;0.40;;;7.80;99.90;;;;;;5070588;28;20198;-53
2022/02/16 05:09:40;;;;;;;0.75;0.68;;;7.80;99.90;;;;;;5069083;28;20269;-53
2022/02/16 05:12:11;;;;;;;0.68;0.55;;;7.80;99.90;;;;;;5064032;28;20203;-53
2022/02/16 05:14:41;;;;;;;0.40;0.32;;;7.80;99.90;;;;;;5054852;28;20212;-51
2022/02/16 05:17:10;;;;;;;0.50;0.47;;;7.80;99.90;;;;;;5068919;28;20204;-57
2022/02/16 05:19:40;;;;;;;0.60;0.45;;;7.80;99.90;;;;;;5067001;28;20216;-54
2022/02/16 05:22:09;;;;;;;1.23;0.50;;;7.80;99.90;;;;;;5069872;28;20204;-52
2022/02/16 05:24:45;;;;;;;0.60;0.60;;;7.80;99.90;;;;;;5066962;28;20499;-53
2022/02/16 05:27:14;;;;;;;0.68;0.50;;;7.80;99.90;;;;;;5065449;28;20191;-54
2022/02/16 05:29:43;;;;;;;0.50;0.50;;;7.80;99.90;;;;;;5057571;28;20700;-51
2022/02/16 05:32:15;;;;;;;0.70;0.50;;;7.80;99.90;;;;;;5068960;28;20197;-53
2022/02/16 05:34:44;;;;;;;0.63;0.55;;;7.80;99.90;;;;;;5059356;28;20278;-53
2022/02/16 05:37:12;;;;;;;0.50;0.50;;;7.80;99.90;;;;;;5102444;28;20207;-51
2022/02/16 05:39:40;;;;;;;1.05;0.30;;;7.80;99.90;;;;;;5066718;28;20315;-53
2022/02/16 05:42:10;;;;;;;1.02;0.50;;;7.80;99.90;;;;;;5052495;28;20199;-56
2022/02/16 05:44:46;;;;;;;0.57;0.50;;;7.80;99.90;;;;;;5067027;28;20226;-52
2022/02/16 05:47:17;;;;;;;0.90;0.75;;;7.80;99.90;;;;;;5068785;28;20188;-54
2022/02/16 05:49:48;;;;;;;0.50;0.40;;;7.80;99.90;;;;;;5065876;28;20224;-52
2022/02/16 05:52:16;;;;;;;0.73;0.60;;;7.80;99.90;;;;;;5065006;28;20270;-53
2022/02/16 05:54:44;;;;;;;0.60;0.50;;;7.80;99.90;;;;;;5058835;28;20710;-50
2022/02/16 05:57:13;;;;;;;0.60;0.60;;;7.80;99.90;;;;;;5066235;28;20192;-51
2022/02/16 05:59:45;;;;;;;0.90;0.50;;;7.80;99.90;;;;;;5062557;28;20256;-52
2022/02/16 06:02:19;;;;;;;0.73;0.50;;;7.80;99.90;;;;;;5069254;28;20203;-56
2022/02/16 06:04:51;;;;;;;0.50;0.40;;;7.80;99.90;;;;;;5066926;28;20295;-50
2022/02/16 06:07:19;;;;;;;0.80;0.50;;;7.80;99.90;;;;;;5069769;28;20770;-51
2022/02/16 06:09:53;;;;;;;0.80;0.50;;;7.80;99.90;;;;;;5069241;28;20639;-52
2022/02/16 06:12:22;;;;;;;0.50;0.40;;;7.80;99.90;;;;;;5067922;28;20287;-54
2022/02/16 06:14:51;;;;;;;0.70;0.50;;;7.80;99.90;;;;;;5063417;28;20677;-51
2022/02/16 06:17:22;;;;;;;0.50;0.43;;;7.80;99.90;;;;;;5067027;28;20188;-53
2022/02/16 06:19:53;;;;;;;0.60;0.40;;;7.80;99.90;;;;;;5063217;28;20274;-52
2022/02/16 06:22:23;;;;;;;1.15;0.70;;;7.80;99.90;;;;;;5058853;28;20200;-56
2022/02/16 06:24:52;;;;;;;0.60;0.40;;;7.80;99.90;;;;;;5048475;28;20229;-53
2022/02/16 06:27:24;;;;;;;0.55;0.50;;;7.80;99.90;;;;;;5060629;28;20270;-51
2022/02/16 06:29:53;;;;;;;0.60;0.60;;;7.80;99.90;;;;;;5065899;28;20280;-52
2022/02/16 06:32:30;;;;;;;1.35;0.70;;;7.80;99.90;;;;;;5067705;28;20248;-52
2022/02/16 06:35:03;;;;;;;0.60;0.40;;;7.80;99.90;;;;;;5064598;28;20221;-55
2022/02/16 06:37:32;;;;;;;0.82;0.60;;;7.80;99.90;;;;;;5066166;28;20275;-52
2022/02/16 06:40:01;;;;;;;0.93;0.60;;;7.80;99.90;;;;;;5066916;28;20729;-53
2022/02/16 06:42:31;;;;;;;0.93;0.60;;;7.80;99.90;;;;;;5061307;28;20189;-52
2022/02/16 06:44:59;;;;;;;0.60;0.50;;;7.80;99.90;;;;;;5058652;28;20208;-53
2022/02/16 06:47:40;;;;;;;0.73;0.60;;;7.80;99.90;;;;;;5068537;28;20537;-52
2022/02/16 06:50:10;;;;;;;0.52;0.50;;;7.80;99.90;;;;;;5052607;28;20212;-52
2022/02/16 06:52:40;;;;;;;0.50;0.50;;;7.80;99.90;;;;;;5056845;28;20199;-55
2022/02/16 06:55:10;;;;;;;0.50;0.40;;;7.80;99.90;;;;;;5068167;28;20196;-52
2022/02/16 06:57:44;;;;;;;0.60;0.60;;;7.80;99.90;;;;;;5065320;28;20672;-51
2022/02/16 07:00:15;;;;;;;0.75;0.50;;;7.80;99.90;;;;;;5066945;28;20219;-52
2022/02/16 07:02:45;;;;;;;0.75;0.50;;;7.80;99.90;;;;;;5067664;28;20227;-52
2022/02/16 07:05:27;;;;;;;0.50;0.50;;;7.80;99.90;;;;;;5054534;28;20239;-55
2022/02/16 07:07:59;;;;;;;0.80;0.50;;;7.80;99.90;;;;;;5067662;28;20215;-52
2022/02/16 07:10:28;;;;;;;0.40;0.40;;;7.80;99.90;;;;;;5067596;28;20220;-50
2022/02/16 07:13:00;;;;;;;0.68;0.68;;;7.80;99.90;;;;;;5064797;28;20570;-55
2022/02/16 07:15:32;;;;;;;0.50;0.40;;;7.80;99.90;;;;;;5087549;28;20251;-52
2022/02/16 07:18:03;;;;;;;0.50;0.40;;;7.80;99.90;;;;;;5071135;28;20219;-51
2022/02/16 07:20:48;;;;;;;0.57;0.45;;;7.80;99.90;;;;;;5068895;28;20230;-52
2022/02/16 07:23:20;;;;;;;0.63;0.60;;;7.80;99.90;;;;;;5067835;28;20310;-52
2022/02/16 07:25:49;;;;;;;1.40;1.30;;;7.80;99.90;;;;;;5072226;28;20280;-53
2022/02/16 07:28:24;;;;;;;1.17;0.80;;;7.80;99.90;;;;;;5065673;28;20216;-52
2022/02/16 07:30:53;;;;;;;0.85;0.60;;;7.80;99.90;;;;;;5066761;28;20632;-53
2022/02/16 07:33:23;;;;;;;0.80;0.60;;;7.80;99.90;;;;;;5069767;28;20262;-54
2022/02/16 07:35:55;;;;;;;0.70;0.50;;;7.80;99.90;;;;;;5070855;28;20198;-52
2022/02/16 07:38:27;;;;;;;0.70;0.60;;;7.80;99.90;;;;;;5071180;28;20223;-51
2022/02/16 07:41:13;;;;;;;0.95;0.65;;;7.80;99.90;;;;;;5071328;28;20213;-55
2022/02/16 07:44:05;;;;;;;0.88;0.70;;;7.80;99.90;;;;;;5066112;28;20208;-56
2022/02/16 07:46:48;;;;;;;0.70;0.50;;;7.80;99.90;;;;;;5071558;28;20196;-53
2022/02/16 07:49:17;;;;;;;0.70;0.60;;;7.80;99.90;;;;;;5068862;28;20241;-52
2022/02/16 07:52:06;;;;;;;0.90;0.77;;;7.80;99.90;;;;;;5070996;28;20203;-54
2022/02/16 07:55:00;;;;;;;0.80;0.60;;;7.80;99.90;;;;;;5064766;28;20282;-52
2022/02/16 07:57:45;;;;;;;1.23;0.73;;;7.80;99.90;;;;;;5082986;28;20192;-55
2022/02/16 08:00:24;;;;;;;0.60;0.60;;;7.80;99.90;;;;;;5092610;28;20212;-51
2022/02/16 08:03:22;;;;;;;1.13;0.50;;;7.80;99.90;;;;;;5071667;27;20228;-54
2022/02/16 08:06:24;;;;;;;0.50;0.40;;;7.80;99.90;;;;;;5075768;28;20568;-50
2022/02/16 08:09:10;;;;;;;0.77;0.60;;;7.80;99.90;;;;;;5063258;28;20217;-52
2022/02/16 08:20:10;;;;;;;0.70;0.40;;;7.90;99.90;;;;;;5062360;28;20233;-54
2022/02/16 08:23:22;;;;;;;0.60;0.45;;;7.90;99.90;;;;;;5051460;28;20251;-52
2022/02/16 08:26:13;;;;;;;0.80;0.60;;;7.80;99.90;;;;;;5069729;28;20249;-52
2022/02/16 08:28:46;;;;;;;0.93;0.70;;;7.90;99.90;;;;;;5064738;28;20215;-53
2022/02/16 08:31:16;;;;;;;0.85;0.60;;;7.90;99.90;;;;;;5069491;28;20303;-50
2022/02/16 08:34:37;;;;;;;0.50;0.40;;;7.80;99.90;;;;;;5062361;28;20232;-53
2022/02/16 08:37:13;;;;;;;0.70;0.40;;;7.90;99.90;;;;;;5068676;28;20219;-51
2022/02/16 08:39:43;;;;;;;1.17;0.45;;;7.90;99.90;;;;;;5068356;28;20219;-51
2022/02/16 08:42:12;;;;;;;0.90;0.80;;;7.90;99.90;;;;;;5063264;28;20189;-53
2022/02/16 08:44:41;;;;;;;0.80;0.60;;;7.90;99.90;;;;;;5068315;28;20211;-51
2022/02/16 08:47:14;;;;;;;1.35;0.57;;;7.90;99.90;;;;;;5070622;28;20619;-53
2022/02/16 08:50:06;;;;;;;0.57;0.50;;;7.90;99.90;;;;;;5057635;28;20276;-52
2022/02/16 08:53:03;;;;;;;0.60;0.50;;;7.90;99.90;;;;;;5062598;28;20188;-51
2022/02/16 08:55:34;;;;;;;0.70;0.50;;;7.90;99.90;;;;;;5071061;28;20187;-50
2022/02/16 08:58:04;;;;;;;0.70;0.50;;;7.90;99.90;;;;;;5065959;28;20226;-53
2022/02/16 09:00:36;;;;;;;1.33;0.60;;;7.90;99.90;;;;;;5069106;28;20222;-50
2022/02/16 09:03:07;;;;;;;0.60;0.47;;;7.90;99.90;;;;;;5070657;28;20218;-54
2022/02/16 09:05:38;;;;;;;0.77;0.40;;;7.90;99.90;;;;;;5053429;28;20212;-53
2022/02/16 09:08:09;;;;;;;0.75;0.43;;;7.90;99.90;;;;;;5066968;28;20227;-52
2022/02/16 09:10:45;;;;;;;1.15;0.82;;;7.90;99.90;;;;;;5082228;28;20206;-49
2022/02/16 09:13:16;;;;;;;1.90;0.68;;;7.90;99.90;;;;;;5066459;28;20217;-52
2022/02/16 09:15:49;;;;;;;2.60;0.52;;;7.90;99.90;;;;;;5066979;28;20727;-52
2022/02/16 09:18:19;;;;;;;0.60;0.60;;;7.90;99.90;;;;;;5061274;27;20580;-53
2022/02/16 09:20:48;;;;;;;1.55;0.40;;;7.90;99.90;;;;;;5050407;28;20218;-53
2022/02/16 09:23:18;;;;;;;0.50;0.40;;;7.90;99.90;;;;;;5068871;28;20264;-51
2022/02/16 09:25:49;;;;;;;0.60;0.40;;;7.90;99.90;;;;;;5070209;28;20221;-53
2022/02/16 09:28:18;;;;;;;0.60;0.50;;;7.90;99.90;;;;;;5058715;28;20226;-54
2022/02/16 09:30:47;;;;;;;0.77;0.60;;;7.90;99.90;;;;;;5070129;28;20220;-52
2022/02/16 09:33:24;;;;;;;1.20;0.60;;;7.90;99.90;;;;;;5068301;28;20701;-53
2022/02/16 09:35:55;;;;;;;0.52;0.32;;;7.90;99.90;;;;;;5059659;28;20199;-53
2022/02/16 09:38:26;;;;;;;0.47;0.40;;;7.90;99.90;;;;;;5068191;28;20303;-54
2022/02/16 09:40:56;;;;;;;0.50;0.30;;;8.00;99.90;;;;;;5067918;28;20332;-52
2022/02/16 09:43:27;;;;;;;0.70;0.60;;;7.90;99.90;;;;;;5060178;28;20211;-51
2022/02/16 09:54:13;;;;;;;0.60;0.50;;;7.90;99.90;;;;;;5064095;27;20214;-53
2022/02/16 09:57:02;;;;;;;0.60;0.40;;;8.00;99.90;;;;;;5081569;28;20188;-52
2022/02/16 09:59:30;;;;;;;0.65;0.60;;;8.00;99.90;;;;;;5053222;28;20221;-53
2022/02/16 10:02:40;;;;;;;0.77;0.57;;;8.00;99.90;;;;;;5066984;28;20187;-53
2022/02/16 10:06:13;;;;;;;0.60;0.40;;;8.00;99.90;;;;;;5057756;28;20257;-50
2022/02/16 10:08:48;;;;;;;0.50;0.45;;;8.00;99.90;;;;;;5068900;28;20216;-53
2022/02/16 10:12:13;;;;;;;1.00;0.63;;;8.00;99.90;;;;;;5059501;28;20204;-52
2022/02/16 10:16:35;;;;;;;0.70;0.40;;;8.00;99.90;;;;;;5064186;28;20219;-51
2022/02/16 10:19:08;;;;;;;0.50;0.50;;;8.00;99.90;;;;;;5056874;28;20212;-52
2022/02/16 10:25:59;;;;;;;0.50;0.40;;;8.00;99.90;;;;;;5069187;28;20215;-52
2022/02/16 10:28:33;;;;;;;0.60;0.40;;;8.00;99.90;;;;;;5063434;27;20214;-53
2022/02/16 10:31:24;;;;;;;0.73;0.50;;;8.10;99.90;;;;;;5066391;28;20300;-51
2022/02/16 10:33:57;;;;;;;0.50;0.50;;;8.10;99.90;;;;;;5071392;27;20212;-52
2022/02/16 10:36:59;;;;;;;1.40;0.50;;;8.10;99.90;;;;;;5069518;28;20623;-52
2022/02/16 10:39:39;;;;;;;0.57;0.40;;;8.10;99.90;;;;;;5071896;27;20679;-54
2022/02/16 10:42:11;;;;;;;0.70;0.60;;;8.10;99.90;;;;;;5069226;28;20231;-53
2022/02/16 10:45:21;;;;;;;0.60;0.40;;;8.10;99.90;;;;;;5067395;27;20222;-52
2022/02/16 10:49:14;;;;;;;0.40;0.30;;;8.10;99.90;;;;;;5071485;27;20719;-51
2022/02/16 10:53:19;;;;;;;;;;;;;;;;;;;;;
2022/02/16 10:57:05;;;;;;;0.80;0.32;;;8.10;99.90;;;;;;5069914;28;20216;-51
2022/02/16 11:04:36;;;;;;;0.70;0.50;;;8.10;99.90;;;;;;5069684;27;20222;-53
2022/02/16 11:07:52;;;;;;;0.60;0.45;;;8.10;99.90;;;;;;5011295;28;20202;-52
2022/02/16 11:11:31;;;;;;;0.75;0.45;;;8.10;99.90;;;;;;4990929;28;20218;-51
2022/02/16 11:14:17;;;;;;;0.77;0.47;;;8.20;99.90;;;;;;5010205;28;20771;-52
2022/02/16 11:27:52;;;;;;;0.60;0.40;;;8.20;99.90;;;;;;5146218;27;20440;-51
2022/02/16 11:30:38;;;;;;;0.55;0.30;;;8.20;99.90;;;;;;5148589;27;20221;-52
2022/02/16 11:33:22;;;;;;;0.50;0.40;;;8.20;99.90;;;;;;5146297;27;20224;-51
2022/02/16 11:37:17;;;;;;;0.40;0.30;;;8.20;99.90;;;;;;5127192;27;20756;-52
2022/02/16 11:43:54;;;;;;;0.60;0.40;;;8.20;99.90;;;;;;5151082;27;20928;-52
2022/02/16 11:46:39;;;;;;;1.10;0.50;;;8.20;99.90;;;;;;5158004;27;20451;-51
2022/02/16 11:49:07;;;;;;;1.48;0.30;;;8.30;99.90;;;;;;5145697;27;20688;-52
2022/02/16 11:51:42;;;;;;;1.35;0.50;;;8.30;99.90;;;;;;5127915;27;20712;-52
2022/02/16 11:54:55;;;;;;;0.85;0.60;;;8.30;99.90;;;;;;5128174;27;20231;-55
2022/02/16 11:57:38;;;;;;;0.77;0.50;;;8.30;99.90;;;;;;5137748;27;20675;-54
2022/02/16 12:00:50;;;;;;;0.60;0.40;;;8.30;99.90;;;;;;5126314;27;20322;-52
2022/02/16 12:03:35;;;;;;;0.90;0.43;;;8.30;99.90;;;;;;5144601;27;20223;-53
2022/02/16 12:06:28;;;;;;;0.60;0.35;;;8.30;99.90;;;;;;5126424;27;20673;-52
2022/02/16 12:09:08;;;;;;;0.50;0.30;;;8.30;99.90;;;;;;5125379;27;20221;-51
2022/02/16 12:11:40;;;;;;;0.70;0.40;;;8.30;99.90;;;;;;5125703;27;20237;-50
2022/02/16 12:14:23;;;;;;;1.02;0.50;;;8.30;99.90;;;;;;5125330;27;20286;-50
2022/02/16 12:20:12;;;;;;;0.60;0.30;;;8.30;99.90;;;;;;5078265;28;20219;-51
2022/02/16 12:23:01;;;;;;;0.60;0.30;;;8.30;99.90;;;;;;5073893;28;20607;-53
2022/02/16 12:26:17;;;;;;;0.50;0.40;;;8.30;99.90;;;;;;5056174;28;20206;-55
2022/02/16 12:33:02;;;;;;;0.50;0.40;;;8.30;99.90;;;;;;5140106;27;20478;-52
2022/02/16 12:35:54;;;;;;;0.50;0.40;;;8.30;99.90;;;;;;5149777;27;20898;-53
2022/02/16 12:39:15;;;;;;;0.50;0.30;;;8.30;99.90;;;;;;5135740;27;20716;-53
2022/02/16 12:42:49;;;;;;;0.60;0.40;;;8.30;99.90;;;;;;5133685;27;20206;-52
2022/02/16 12:45:27;;;;;;;0.80;0.50;;;8.30;99.90;;;;;;5114058;27;20226;-55
2022/02/16 12:52:27;;;;;;;0.73;0.50;;;8.30;99.90;;;;;;5118374;27;20638;-52
2022/02/16 12:58:18;;;;;;;0.60;0.60;;;8.30;99.90;;;;;;5146719;27;20219;-55
2022/02/16 13:00:52;;;;;;;0.60;0.40;;;8.30;99.90;;;;;;5137294;27;20212;-54
2022/02/16 13:03:28;;;;;;;0.70;0.45;;;8.30;99.90;;;;;;5130836;27;20540;-54
2022/02/16 13:06:06;;;;;;;0.98;0.50;;;8.30;99.90;;;;;;5127915;27;20190;-53
2022/02/16 13:08:38;;;;;;;0.65;0.50;;;8.30;99.90;;;;;;5153230;27;20504;-52
2022/02/16 13:11:18;;;;;;;0.70;0.50;;;8.30;99.90;;;;;;5153038;27;20217;-53
2022/02/16 13:14:09;;;;;;;0.90;0.50;;;8.30;99.90;;;;;;5150165;27;20250;-51
2022/02/16 13:16:44;;;;;;;0.70;0.40;;;8.30;99.90;;;;;;5132937;27;20194;-53
2022/02/16 13:19:55;;;;;;;0.60;0.50;;;8.30;99.90;;;;;;5137135;27;20707;-53
2022/02/16 13:26:16;;;;;;;1.17;0.40;;;8.30;99.90;;;;;;5133928;27;20217;-54
2022/02/16 13:28:49;;;;;;;1.67;0.55;;;8.30;99.90;;;;;;5133645;27;20465;-52
2022/02/16 13:32:10;;;;;;;;;;;;;;;;;;;;;
2022/02/16 13:35:31;;;;;;;1.08;0.40;;;8.30;99.90;;;;;;5119300;27;20573;-51
2022/02/16 13:38:04;;;;;;;1.90;0.57;;;8.40;99.90;;;;;;5141211;27;20220;-50
2022/02/16 13:40:47;;;;;;;0.55;0.55;;;8.30;99.90;;;;;;5149419;27;20801;-51
2022/02/16 13:43:48;;;;;;;0.90;0.60;;;8.40;99.90;;;;;;5151037;27;20220;-51
2022/02/16 13:46:26;;;;;;;1.13;0.60;;;8.40;99.90;;;;;;5143061;27;20201;-52
2022/02/16 13:49:09;;;;;;;1.17;0.45;;;8.40;99.90;;;;;;5134036;27;20219;-54
2022/02/16 13:51:52;;;;;;;0.93;0.45;;;8.40;99.90;;;;;;5132100;27;20202;-52
2022/02/16 13:54:26;;;;;;;0.90;0.50;;;8.40;99.90;;;;;;5127057;27;20222;-53
2022/02/16 13:56:58;;;;;;;0.50;0.45;;;8.40;99.90;;;;;;5122701;27;20235;-52
2022/02/16 13:59:28;;;;;;;1.02;0.60;;;8.40;99.90;;;;;;5109024;28;20266;-53
2022/02/16 14:02:08;;;;;;;1.00;0.50;;;8.40;99.90;;;;;;5110975;27;20244;-52
2022/02/16 14:04:47;;;;;;;1.83;0.70;;;8.40;99.90;;;;;;5113066;27;20583;-51
2022/02/16 14:07:19;;;;;;;1.02;0.50;;;8.40;99.90;;;;;;5112017;27;20658;-51
2022/02/16 14:10:10;;;;;;;0.70;0.50;;;8.50;99.90;;;;;;5112570;27;20231;-54
2022/02/16 14:12:43;;;;;;;1.75;0.70;;;8.50;99.90;;;;;;5122603;27;20687;-49
2022/02/16 14:15:14;;;;;;;6.45;0.90;;;8.50;99.90;;;;;;5108781;27;20281;-52
2022/02/16 14:17:47;;;;;;;5.95;1.00;;;8.50;99.90;;;;;;5110635;28;20200;-53
2022/02/16 14:20:17;;;;;;;1.80;0.70;;;8.60;99.90;;;;;;5145457;27;20318;-53
2022/02/16 14:22:50;;;;;;;3.38;1.00;;;8.50;99.90;;;;;;5150653;27;20253;-54
2022/02/16 14:25:20;;;;;;;1.73;0.90;;;8.60;99.90;;;;;;5151946;27;20420;-52
2022/02/16 14:27:49;;;;;;;1.87;1.20;;;8.60;99.90;;;;;;5150419;27;20947;-50
2022/02/16 14:30:20;;;;;;;1.58;0.88;;;8.60;99.90;;;;;;5151891;27;21017;-52
2022/02/16 14:32:51;;;;;;;2.25;1.00;;;8.50;99.90;;;;;;5150777;27;20195;-52
2022/02/16 14:35:22;;;;;;;0.50;0.50;;;8.50;99.90;;;;;;5150429;27;20280;-52
2022/02/16 14:37:56;;;;;;;2.22;0.90;;;8.60;99.90;;;;;;5151291;27;20960;-51
2022/02/16 14:40:26;;;;;;;1.13;0.80;;;8.50;99.90;;;;;;5137102;27;20288;-51
2022/02/16 14:42:54;;;;;;;0.73;0.70;;;8.60;99.90;;;;;;5140366;27;20201;-51
2022/02/16 14:45:23;;;;;;;1.33;0.80;;;8.50;99.90;;;;;;5151124;27;20789;-52
2022/02/16 14:47:52;;;;;;;1.52;1.10;;;8.50;99.90;;;;;;5150124;27;20196;-51
2022/02/16 14:50:21;;;;;;;0.95;0.77;;;8.60;99.90;;;;;;5149537;27;20962;-50